Terminal Aerodrome Forecast
Issued by NWS Newport/Morehead City, NC

Current Version | Previous Version | Text Only | Print | Product List | Glossary On
Versions: 1 2 3 4 5 6 7 8 9 10 11 12 13 14 15 16
000
FTUS42 KMHX 251126
TAFEWN
TAF
KEWN 251126Z 2512/2612 17010KT P6SM SCT040
     FM260000 17004KT P6SM SCT040=

USA.gov is the U.S. government's official web portal to all federal, state and local government web resources and services.